createdAt,value
2023-03-29T00:01:42.192Z,8.50
2023-03-29T00:04:10.106Z,8.50
2023-03-29T00:06:37.716Z,8.40
2023-03-29T00:09:09.606Z,8.50
2023-03-29T00:11:36.251Z,8.40
2023-03-29T00:14:02.904Z,8.50
2023-03-29T00:16:29.537Z,8.40
2023-03-29T00:18:56.416Z,8.50
2023-03-29T00:21:22.995Z,8.40
2023-03-29T00:23:49.634Z,8.50
2023-03-29T00:26:16.352Z,8.50
2023-03-29T00:28:43.104Z,8.40
2023-03-29T00:31:12.678Z,8.40
2023-03-29T00:33:39.958Z,8.40
2023-03-29T00:36:07.436Z,8.30
2023-03-29T00:38:34.623Z,8.30
2023-03-29T00:41:01.916Z,8.30
2023-03-29T00:43:28.660Z,8.20
2023-03-29T00:45:55.589Z,8.30
2023-03-29T00:48:26.949Z,8.30
2023-03-29T00:51:01.654Z,8.30
2023-03-29T00:53:57.920Z,8.30
2023-03-29T00:56:29.875Z,8.30
2023-03-29T00:59:19.606Z,8.20
2023-03-29T01:01:54.395Z,8.30
2023-03-29T01:04:32.623Z,8.30
2023-03-29T01:07:08.051Z,8.30
2023-03-29T01:09:39.256Z,8.20
2023-03-29T01:12:17.035Z,8.30
2023-03-29T01:14:56.436Z,8.20
2023-03-29T01:17:25.336Z,8.20
2023-03-29T01:20:02.108Z,8.20
2023-03-29T01:22:38.509Z,8.20
2023-03-29T01:25:26.680Z,8.20
2023-03-29T01:28:04.079Z,8.20
2023-03-29T01:30:37.202Z,8.20
2023-03-29T01:33:21.252Z,8.20
2023-03-29T01:36:03.402Z,8.20
2023-03-29T01:38:37.747Z,8.20
2023-03-29T01:41:05.027Z,8.20
2023-03-29T01:43:57.766Z,8.20
2023-03-29T01:46:43.736Z,8.20
2023-03-29T01:49:22.983Z,8.20
2023-03-29T01:51:56.368Z,8.20
2023-03-29T01:54:33.001Z,8.20
2023-03-29T01:57:00.971Z,8.20
2023-03-29T01:59:32.182Z,8.20
2023-03-29T02:02:02.583Z,8.30
2023-03-29T02:04:34.587Z,8.30
2023-03-29T02:07:04.855Z,8.50
2023-03-29T02:09:33.251Z,8.40
2023-03-29T02:12:02.378Z,8.50
2023-03-29T02:14:30.375Z,8.50
2023-03-29T02:16:57.010Z,8.50
2023-03-29T02:19:25.230Z,8.50
2023-03-29T02:22:10.164Z,8.40
2023-03-29T02:24:38.915Z,8.30
2023-03-29T02:27:06.033Z,8.30
2023-03-29T02:29:32.783Z,8.40
2023-03-29T02:32:10.037Z,8.40
2023-03-29T02:34:47.654Z,8.40
2023-03-29T02:37:18.748Z,8.30
2023-03-29T02:39:49.733Z,8.40
2023-03-29T02:42:20.241Z,8.40
2023-03-29T02:44:50.492Z,8.40
2023-03-29T02:47:25.054Z,8.40
2023-03-29T02:49:51.980Z,8.40
2023-03-29T02:52:23.961Z,8.40
2023-03-29T02:54:53.007Z,8.40
2023-03-29T02:57:26.635Z,8.40
2023-03-29T02:59:58.793Z,8.40
2023-03-29T03:02:27.767Z,8.40
2023-03-29T03:04:54.548Z,8.40
2023-03-29T03:07:21.248Z,8.50
2023-03-29T03:09:48.348Z,8.50
2023-03-29T03:12:15.069Z,8.50
2023-03-29T03:14:41.689Z,8.50
2023-03-29T03:17:08.436Z,8.50
2023-03-29T03:19:35.229Z,8.50
2023-03-29T03:22:02.038Z,8.50
2023-03-29T03:24:28.629Z,8.60
2023-03-29T03:26:55.318Z,8.60
2023-03-29T03:29:21.980Z,8.50
2023-03-29T03:31:49.309Z,8.50
2023-03-29T03:34:17.436Z,8.50
2023-03-29T03:36:44.027Z,8.50
2023-03-29T03:39:11.785Z,8.50
2023-03-29T03:41:38.502Z,8.50
2023-03-29T03:44:05.543Z,8.50
2023-03-29T03:46:32.170Z,8.50
2023-03-29T03:48:59.433Z,8.50
2023-03-29T03:51:26.471Z,8.50
2023-03-29T03:53:53.094Z,8.50
2023-03-29T03:56:20.370Z,8.50
2023-03-29T03:58:47.760Z,8.50
2023-03-29T04:01:14.517Z,8.50
2023-03-29T04:03:41.341Z,8.50
2023-03-29T04:06:08.220Z,8.50
2023-03-29T04:08:34.938Z,8.50
2023-03-29T04:11:01.865Z,8.50
2023-03-29T04:13:29.195Z,8.50
2023-03-29T04:15:58.797Z,8.40
2023-03-29T04:18:27.415Z,8.40
2023-03-29T04:20:54.077Z,8.40
2023-03-29T04:23:20.930Z,8.50
2023-03-29T04:25:47.597Z,8.40
2023-03-29T04:28:14.201Z,8.40
2023-03-29T04:30:41.311Z,8.40
2023-03-29T04:33:08.006Z,8.40
2023-03-29T04:35:34.818Z,8.30
2023-03-29T04:38:01.927Z,8.30
2023-03-29T04:40:29.091Z,8.30
2023-03-29T04:42:55.767Z,8.30
2023-03-29T04:45:22.574Z,8.30
2023-03-29T04:47:49.506Z,8.30
2023-03-29T04:50:16.135Z,8.30
2023-03-29T04:52:42.857Z,8.30
2023-03-29T04:55:10.761Z,8.30
2023-03-29T04:57:37.337Z,8.30
2023-03-29T05:00:15.389Z,8.20
2023-03-29T05:02:44.015Z,8.30
2023-03-29T05:05:11.573Z,8.30
2023-03-29T05:07:38.640Z,8.40
2023-03-29T05:10:06.505Z,8.40
2023-03-29T05:12:33.367Z,8.50
2023-03-29T05:15:00.289Z,8.50
2023-03-29T05:17:27.220Z,8.50
2023-03-29T05:19:54.703Z,8.50
2023-03-29T05:22:21.678Z,8.50
2023-03-29T05:24:48.326Z,8.60
2023-03-29T05:27:15.195Z,8.60
2023-03-29T05:29:41.788Z,8.60
2023-03-29T05:32:08.455Z,8.60
2023-03-29T05:34:35.880Z,8.60
2023-03-29T05:37:02.574Z,8.60
2023-03-29T05:39:29.397Z,8.60
2023-03-29T05:41:55.987Z,8.70
2023-03-29T05:44:22.599Z,8.70
2023-03-29T05:46:49.178Z,8.70
2023-03-29T05:49:16.456Z,8.70
2023-03-29T05:51:45.645Z,8.70
2023-03-29T05:54:12.397Z,8.70
2023-03-29T05:56:39.070Z,8.80
2023-03-29T05:59:05.702Z,8.80
2023-03-29T06:01:32.321Z,8.80
2023-03-29T06:03:59.037Z,8.80
2023-03-29T06:06:25.697Z,8.80
2023-03-29T06:08:52.335Z,8.70
2023-03-29T06:11:19.069Z,8.70
2023-03-29T06:13:45.846Z,8.70
2023-03-29T06:16:13.342Z,8.80
2023-03-29T06:18:41.037Z,8.80
2023-03-29T06:21:09.202Z,8.80
2023-03-29T06:23:36.436Z,8.80
2023-03-29T06:26:03.678Z,8.90
2023-03-29T06:28:30.619Z,8.80
2023-03-29T06:31:02.225Z,8.80
2023-03-29T06:33:30.570Z,8.70
2023-03-29T06:35:57.633Z,8.70
2023-03-29T06:38:26.304Z,8.70
2023-03-29T06:40:59.844Z,8.70
2023-03-29T06:43:27.111Z,8.70
2023-03-29T06:45:54.839Z,8.70
2023-03-29T06:48:21.675Z,8.80
2023-03-29T06:50:48.820Z,8.80
2023-03-29T06:53:18.350Z,8.90
2023-03-29T06:55:45.795Z,8.90
2023-03-29T06:58:12.428Z,8.90
2023-03-29T07:00:39.346Z,9.00
2023-03-29T07:03:07.959Z,9.10
2023-03-29T07:05:36.436Z,9.10
2023-03-29T07:08:06.158Z,9.10
2023-03-29T07:10:38.263Z,9.10
2023-03-29T07:13:12.089Z,9.10
2023-03-29T07:15:40.807Z,9.10
2023-03-29T07:18:09.383Z,9.20
2023-03-29T07:20:38.333Z,9.40
2023-03-29T07:23:06.140Z,9.40
2023-03-29T07:25:33.872Z,9.40
2023-03-29T07:28:00.732Z,9.50
2023-03-29T07:30:31.683Z,9.50
2023-03-29T07:32:59.523Z,9.60
2023-03-29T07:35:28.152Z,9.70
2023-03-29T07:37:55.764Z,9.70
2023-03-29T07:40:23.660Z,9.80
2023-03-29T07:42:53.868Z,9.90
2023-03-29T07:45:26.768Z,9.90
2023-03-29T07:47:56.996Z,10.00
2023-03-29T07:50:23.753Z,10.10
2023-03-29T07:52:51.118Z,10.10
2023-03-29T07:55:18.369Z,10.10
2023-03-29T07:57:44.949Z,10.10
2023-03-29T08:00:17.093Z,10.10
2023-03-29T08:02:45.847Z,10.20
2023-03-29T08:05:15.454Z,10.10
2023-03-29T08:07:46.739Z,10.20
2023-03-29T08:10:16.352Z,10.30
2023-03-29T08:12:44.018Z,10.30
2023-03-29T08:15:11.106Z,10.40
2023-03-29T08:17:38.001Z,10.40
2023-03-29T08:20:06.222Z,10.50
2023-03-29T08:22:33.563Z,10.50
2023-03-29T08:25:00.308Z,10.60
2023-03-29T08:27:27.065Z,10.70
2023-03-29T08:29:53.699Z,10.80
2023-03-29T08:32:20.768Z,10.90
2023-03-29T08:34:47.517Z,10.80
2023-03-29T08:37:14.791Z,10.90
2023-03-29T08:39:41.664Z,10.90
2023-03-29T08:42:25.477Z,10.90
2023-03-29T08:45:10.964Z,10.80
2023-03-29T08:47:52.614Z,10.90
2023-03-29T08:50:22.508Z,10.80
2023-03-29T08:52:56.189Z,10.80
2023-03-29T08:55:31.609Z,10.90
2023-03-29T08:58:02.234Z,11.00
2023-03-29T09:00:50.662Z,11.00
2023-03-29T09:03:31.207Z,11.10
2023-03-29T09:06:02.575Z,11.00
2023-03-29T09:08:29.401Z,11.10
2023-03-29T09:11:21.561Z,11.20
2023-03-29T09:14:03.276Z,11.30
2023-03-29T09:16:43.666Z,11.40
2023-03-29T09:19:39.396Z,11.50
2023-03-29T09:22:38.778Z,11.60
2023-03-29T09:25:26.241Z,11.70
2023-03-29T09:28:19.323Z,11.80
2023-03-29T09:31:06.280Z,12.00
2023-03-29T09:33:43.119Z,12.10
2023-03-29T09:36:28.449Z,12.20
2023-03-29T09:38:55.545Z,12.20
2023-03-29T09:41:31.591Z,12.30
2023-03-29T09:44:02.524Z,12.40
2023-03-29T09:46:42.016Z,12.40
2023-03-29T09:49:17.585Z,12.50
2023-03-29T09:51:47.210Z,12.60
2023-03-29T09:54:14.109Z,12.70
2023-03-29T09:56:41.051Z,12.80
2023-03-29T09:59:11.277Z,13.00
2023-03-29T10:01:41.465Z,13.10
2023-03-29T10:04:12.361Z,13.20
2023-03-29T10:06:49.488Z,13.30
2023-03-29T10:09:22.484Z,13.30
2023-03-29T10:11:54.835Z,13.40
2023-03-29T10:14:42.360Z,13.50
2023-03-29T10:17:29.499Z,13.60
2023-03-29T10:19:58.093Z,13.60
2023-03-29T10:22:27.728Z,13.70
2023-03-29T10:24:57.071Z,13.70
2023-03-29T10:27:36.071Z,13.80
2023-03-29T10:30:12.799Z,13.90
2023-03-29T10:32:40.612Z,14.00
2023-03-29T10:35:10.768Z,14.00
2023-03-29T10:37:42.600Z,14.10
2023-03-29T10:40:48.697Z,14.20
2023-03-29T10:43:38.355Z,14.20
2023-03-29T10:46:19.378Z,14.30
2023-03-29T10:48:49.084Z,14.30
2023-03-29T10:51:18.334Z,14.40
2023-03-29T10:53:45.309Z,14.40
2023-03-29T10:56:30.570Z,14.50
2023-03-29T10:59:09.186Z,14.60
2023-03-29T11:02:12.934Z,14.70
2023-03-29T11:04:59.979Z,14.80
2023-03-29T11:07:56.813Z,14.90
2023-03-29T11:10:36.880Z,15.00
2023-03-29T11:13:25.642Z,15.10
2023-03-29T11:16:23.826Z,15.10
2023-03-29T11:19:38.016Z,15.20
2023-03-29T11:22:53.081Z,15.20
2023-03-29T11:25:19.949Z,15.30
2023-03-29T11:27:58.961Z,15.40
2023-03-29T11:30:30.879Z,15.50
2023-03-29T11:33:19.428Z,15.60
2023-03-29T11:36:04.057Z,15.70
2023-03-29T11:38:39.868Z,15.70
2023-03-29T11:41:15.800Z,15.70
2023-03-29T11:43:48.548Z,15.80
2023-03-29T11:46:27.176Z,15.80
2023-03-29T11:49:23.117Z,15.90
2023-03-29T11:51:58.075Z,15.90
2023-03-29T11:54:45.704Z,16.10
2023-03-29T11:57:18.369Z,16.20
2023-03-29T11:59:48.494Z,16.20
2023-03-29T12:02:48.865Z,16.30
2023-03-29T12:05:27.328Z,16.30
2023-03-29T12:08:05.095Z,16.40
2023-03-29T12:10:41.095Z,16.40
2023-03-29T12:13:27.011Z,16.30
2023-03-29T12:16:25.392Z,16.40
2023-03-29T12:18:56.044Z,16.50
2023-03-29T12:21:26.006Z,16.50
2023-03-29T12:23:53.038Z,16.60
2023-03-29T12:26:47.605Z,16.60
2023-03-29T12:29:41.886Z,16.60
2023-03-29T12:32:12.221Z,16.70
2023-03-29T12:35:18.002Z,16.80
2023-03-29T12:38:03.511Z,16.90
2023-03-29T12:40:41.786Z,16.90
2023-03-29T12:43:39.496Z,17.00
2023-03-29T12:46:15.497Z,17.10
2023-03-29T12:48:44.632Z,17.10
2023-03-29T12:51:15.109Z,17.10
2023-03-29T12:53:49.214Z,17.10
2023-03-29T12:57:01.363Z,17.10
2023-03-29T12:59:48.985Z,17.10
2023-03-29T13:02:15.908Z,17.10
2023-03-29T13:04:42.665Z,17.20
2023-03-29T13:07:29.207Z,17.20
2023-03-29T13:10:00.224Z,17.30
2023-03-29T13:12:30.261Z,17.20
2023-03-29T13:15:04.024Z,17.20
2023-03-29T13:17:52.373Z,17.30
2023-03-29T13:20:37.578Z,17.40
2023-03-29T13:23:27.680Z,17.50
2023-03-29T13:26:08.075Z,17.60
2023-03-29T13:28:41.502Z,17.60
2023-03-29T13:31:26.987Z,17.80
2023-03-29T13:34:22.585Z,17.90
2023-03-29T13:36:56.823Z,17.90
2023-03-29T13:39:28.000Z,17.90
2023-03-29T13:42:08.680Z,18.00
2023-03-29T13:44:48.840Z,18.10
2023-03-29T13:50:51.908Z,18.10
2023-03-29T13:53:40.182Z,18.20
2023-03-29T13:56:12.088Z,18.20
2023-03-29T13:58:43.262Z,18.20
2023-03-29T14:01:31.227Z,18.20
2023-03-29T14:03:59.379Z,18.20
2023-03-29T14:06:30.428Z,18.10
2023-03-29T14:08:58.784Z,18.20
2023-03-29T14:11:28.942Z,18.20
2023-03-29T14:14:05.031Z,18.30
2023-03-29T14:16:35.455Z,18.20
2023-03-29T14:19:13.375Z,18.30
2023-03-29T14:21:44.591Z,18.30
2023-03-29T14:24:17.563Z,18.30
2023-03-29T14:26:46.772Z,18.20
2023-03-29T14:29:13.643Z,18.30
2023-03-29T14:31:42.185Z,18.20
2023-03-29T14:34:14.424Z,18.20
2023-03-29T14:36:44.774Z,18.20
2023-03-29T14:39:21.070Z,18.10
2023-03-29T14:41:52.975Z,18.10
2023-03-29T14:44:25.892Z,18.20
2023-03-29T14:46:53.462Z,18.20
2023-03-29T14:49:22.830Z,18.20
2023-03-29T14:51:50.244Z,18.20
2023-03-29T14:54:37.920Z,18.20
2023-03-29T14:57:08.192Z,18.20
2023-03-29T14:59:35.005Z,18.20
2023-03-29T15:02:01.587Z,18.20
2023-03-29T15:04:37.625Z,18.30
2023-03-29T15:07:05.011Z,18.30
2023-03-29T15:09:34.558Z,18.40
2023-03-29T15:12:02.831Z,18.30
2023-03-29T15:14:36.931Z,18.50
2023-03-29T15:17:16.735Z,18.40
2023-03-29T15:19:43.418Z,18.50
2023-03-29T15:22:11.280Z,18.50
2023-03-29T15:24:44.237Z,18.60
2023-03-29T15:27:15.619Z,18.50
2023-03-29T15:29:45.242Z,18.50
2023-03-29T15:32:24.693Z,18.60
2023-03-29T15:35:10.441Z,18.50
2023-03-29T15:37:37.623Z,18.50
2023-03-29T15:40:09.500Z,18.50
2023-03-29T15:42:36.576Z,18.50
2023-03-29T15:45:06.235Z,18.50
2023-03-29T15:47:33.071Z,18.50
2023-03-29T15:49:59.669Z,18.50
2023-03-29T15:52:26.290Z,18.40
2023-03-29T15:54:52.905Z,18.30
2023-03-29T15:57:20.002Z,18.30
2023-03-29T15:59:46.667Z,18.30
2023-03-29T16:02:17.345Z,18.30
2023-03-29T16:04:44.079Z,18.30
2023-03-29T16:07:14.474Z,18.20
2023-03-29T16:09:41.825Z,18.20
2023-03-29T16:12:09.179Z,18.20
2023-03-29T16:14:36.144Z,18.10
2023-03-29T16:17:03.755Z,18.10
2023-03-29T16:19:31.573Z,17.90
2023-03-29T16:21:59.711Z,17.80
2023-03-29T16:24:28.854Z,17.70
2023-03-29T16:26:56.566Z,17.70
2023-03-29T16:29:24.623Z,17.70
2023-03-29T16:31:52.613Z,17.70
2023-03-29T16:34:20.936Z,17.60
2023-03-29T16:36:49.025Z,17.60
2023-03-29T16:39:17.247Z,17.60
2023-03-29T16:41:45.157Z,17.60
2023-03-29T16:44:19.446Z,17.60
2023-03-29T16:46:47.703Z,17.50
2023-03-29T16:49:18.118Z,17.50
2023-03-29T16:51:46.641Z,17.40
2023-03-29T16:54:13.984Z,17.40
2023-03-29T16:56:40.826Z,17.30
2023-03-29T16:59:07.602Z,17.10
2023-03-29T17:01:34.622Z,17.20
2023-03-29T17:04:01.539Z,17.10
2023-03-29T17:06:28.434Z,17.10
2023-03-29T17:08:55.075Z,17.10
2023-03-29T17:11:24.401Z,17.10
2023-03-29T17:13:51.132Z,17.10
2023-03-29T17:16:17.865Z,17.10
2023-03-29T17:18:44.647Z,17.10
2023-03-29T17:21:11.396Z,17.10
2023-03-29T17:23:38.027Z,17.00
2023-03-29T17:26:06.884Z,17.00
2023-03-29T17:28:34.001Z,16.90
2023-03-29T17:31:04.742Z,16.80
2023-03-29T17:33:31.795Z,16.70
2023-03-29T17:35:58.475Z,16.70
2023-03-29T17:38:26.643Z,16.60
2023-03-29T17:40:54.590Z,16.60
2023-03-29T17:43:21.530Z,16.50
2023-03-29T17:45:52.598Z,16.40
2023-03-29T17:48:19.743Z,16.30
2023-03-29T17:50:46.698Z,16.20
2023-03-29T17:53:13.705Z,16.20
2023-03-29T17:55:41.289Z,16.10
2023-03-29T17:58:08.281Z,16.10
2023-03-29T18:00:35.710Z,16.00
2023-03-29T18:03:05.587Z,16.00
2023-03-29T18:05:32.390Z,15.90
2023-03-29T18:07:58.974Z,16.00
2023-03-29T18:10:25.781Z,15.90
2023-03-29T18:12:53.702Z,15.90
2023-03-29T18:15:20.743Z,16.00
2023-03-29T18:17:47.435Z,15.90
2023-03-29T18:20:14.146Z,16.00
2023-03-29T18:22:41.734Z,15.90
2023-03-29T18:25:09.505Z,15.90
2023-03-29T18:27:37.135Z,15.80
2023-03-29T18:30:04.654Z,15.80
2023-03-29T18:32:31.588Z,15.70
2023-03-29T18:34:58.264Z,15.50
2023-03-29T18:37:24.957Z,15.50
2023-03-29T18:39:51.562Z,15.40
2023-03-29T18:42:20.235Z,15.40
2023-03-29T18:44:46.837Z,15.50
2023-03-29T18:47:13.431Z,15.60
2023-03-29T18:49:40.658Z,15.50
2023-03-29T18:52:07.417Z,15.50
2023-03-29T18:54:33.999Z,15.50
2023-03-29T18:57:00.784Z,15.50
2023-03-29T18:59:27.557Z,15.60
2023-03-29T19:01:54.179Z,15.60
2023-03-29T19:04:20.988Z,15.60
2023-03-29T19:06:49.211Z,15.50
2023-03-29T19:09:16.114Z,15.50
2023-03-29T19:11:43.462Z,15.50
2023-03-29T19:14:10.768Z,15.50
2023-03-29T19:16:37.634Z,15.40
2023-03-29T19:19:06.547Z,15.40
2023-03-29T19:21:35.272Z,15.40
2023-03-29T19:24:05.078Z,15.40
2023-03-29T19:26:33.312Z,15.40
2023-03-29T19:29:00.982Z,15.30
2023-03-29T19:31:28.042Z,15.30
2023-03-29T19:33:54.975Z,15.30
2023-03-29T19:36:22.173Z,15.30
2023-03-29T19:38:48.878Z,15.30
2023-03-29T19:41:15.840Z,15.20
2023-03-29T19:43:42.479Z,15.20
2023-03-29T19:46:11.049Z,15.20
2023-03-29T19:48:39.921Z,15.10
2023-03-29T19:51:07.823Z,15.10
2023-03-29T19:53:37.173Z,15.10
2023-03-29T19:56:07.703Z,15.00
2023-03-29T19:58:34.601Z,14.90
2023-03-29T20:01:01.470Z,14.70
2023-03-29T20:03:28.470Z,14.70
2023-03-29T20:05:56.516Z,14.60
2023-03-29T20:08:24.776Z,14.50
2023-03-29T20:11:03.630Z,14.50
2023-03-29T20:13:38.245Z,14.40
2023-03-29T20:16:07.615Z,14.40
2023-03-29T20:18:34.813Z,14.30
2023-03-29T20:21:01.934Z,14.10
2023-03-29T20:23:28.856Z,14.00
2023-03-29T20:25:55.615Z,13.90
2023-03-29T20:28:23.481Z,13.90
2023-03-29T20:30:51.301Z,13.80
2023-03-29T20:33:19.293Z,13.80
2023-03-29T20:35:46.741Z,13.70
2023-03-29T20:38:14.000Z,13.80
2023-03-29T20:40:41.345Z,13.80
2023-03-29T20:43:13.100Z,13.80
2023-03-29T20:45:51.966Z,13.80
2023-03-29T20:48:23.048Z,13.80
2023-03-29T20:50:51.290Z,13.80
2023-03-29T20:53:20.223Z,13.70
2023-03-29T20:55:47.716Z,13.70
2023-03-29T20:58:15.595Z,13.70
2023-03-29T21:00:42.364Z,13.70
2023-03-29T21:03:09.683Z,13.70
2023-03-29T21:05:37.069Z,13.70
2023-03-29T21:08:04.252Z,13.70
2023-03-29T21:10:31.348Z,13.60
2023-03-29T21:13:02.470Z,13.60
2023-03-29T21:15:31.905Z,13.60
2023-03-29T21:17:58.722Z,13.60
2023-03-29T21:20:25.829Z,13.60
2023-03-29T21:22:52.601Z,13.50
2023-03-29T21:25:19.540Z,13.60
2023-03-29T21:27:46.199Z,13.50
2023-03-29T21:30:13.125Z,13.60
2023-03-29T21:32:40.395Z,13.60
2023-03-29T21:35:07.721Z,13.70
2023-03-29T21:37:34.495Z,13.70
2023-03-29T21:40:05.269Z,13.70
2023-03-29T21:42:35.067Z,13.60
2023-03-29T21:45:01.738Z,13.60
2023-03-29T21:47:28.772Z,13.60
2023-03-29T21:49:55.406Z,13.60
2023-03-29T21:52:22.263Z,13.70
2023-03-29T21:54:48.887Z,13.70
2023-03-29T21:57:15.674Z,13.70
2023-03-29T21:59:42.337Z,13.80
2023-03-29T22:02:09.170Z,13.70
2023-03-29T22:04:37.378Z,13.80
2023-03-29T22:07:05.224Z,13.70
2023-03-29T22:09:35.338Z,13.80
2023-03-29T22:12:02.845Z,13.80
2023-03-29T22:14:31.761Z,13.90
2023-03-29T22:16:58.453Z,13.80
2023-03-29T22:19:25.141Z,13.70
2023-03-29T22:21:51.754Z,13.60
2023-03-29T22:24:18.626Z,13.60
2023-03-29T22:26:45.343Z,13.50
2023-03-29T22:29:12.184Z,13.50
2023-03-29T22:31:39.376Z,13.40
2023-03-29T22:34:06.555Z,13.40
2023-03-29T22:36:33.468Z,13.40
2023-03-29T22:39:00.351Z,13.40
2023-03-29T22:41:28.104Z,13.30
2023-03-29T22:43:57.325Z,13.30
2023-03-29T22:46:24.862Z,13.20
2023-03-29T22:48:52.297Z,13.10
2023-03-29T22:51:19.663Z,13.10
2023-03-29T22:53:49.229Z,13.00
2023-03-29T22:56:16.748Z,13.00
2023-03-29T22:58:43.839Z,13.00
2023-03-29T23:01:11.283Z,13.00
2023-03-29T23:03:37.967Z,12.90
2023-03-29T23:06:05.445Z,12.80
2023-03-29T23:08:33.268Z,12.80
2023-03-29T23:11:00.537Z,12.80
2023-03-29T23:13:28.897Z,12.80
2023-03-29T23:15:58.736Z,12.80
2023-03-29T23:18:26.893Z,12.80
2023-03-29T23:20:55.421Z,12.80
2023-03-29T23:23:23.541Z,12.80
2023-03-29T23:25:52.323Z,12.70
2023-03-29T23:28:21.761Z,12.80
2023-03-29T23:31:00.304Z,12.90
2023-03-29T23:33:30.476Z,12.90
2023-03-29T23:35:57.143Z,12.90
2023-03-29T23:38:24.129Z,12.80
2023-03-29T23:41:00.261Z,12.90
2023-03-29T23:43:31.721Z,12.90
2023-03-29T23:46:00.966Z,12.90
2023-03-29T23:48:28.324Z,13.00
2023-03-29T23:50:57.119Z,13.00
2023-03-29T23:53:28.642Z,13.00
2023-03-29T23:55:58.185Z,13.10
2023-03-29T23:58:24.808Z,13.10
